createdAt,value
2022-10-01T00:01:27.053Z,96.10
2022-10-01T00:04:32.949Z,96.10
2022-10-01T00:07:43.308Z,96.30
2022-10-01T00:10:45.568Z,96.20
2022-10-01T00:13:48.537Z,96.20
2022-10-01T00:16:50.686Z,96.20
2022-10-01T00:19:52.701Z,96.10
2022-10-01T00:22:54.888Z,96.00
2022-10-01T00:26:08.407Z,95.90
2022-10-01T00:29:14.264Z,96.10
2022-10-01T00:32:16.424Z,96.10
2022-10-01T00:35:18.451Z,95.90
2022-10-01T00:38:21.191Z,96.10
2022-10-01T00:41:23.520Z,96.00
2022-10-01T00:44:35.430Z,96.00
2022-10-01T00:47:43.295Z,96.20
2022-10-01T00:50:49.186Z,96.10
2022-10-01T00:53:53.392Z,96.00
2022-10-01T00:56:59.653Z,96.20
2022-10-01T01:00:04.912Z,96.00
2022-10-01T01:03:09.944Z,95.90
2022-10-01T01:06:11.917Z,96.00
2022-10-01T01:09:14.438Z,96.10
2022-10-01T01:12:37.446Z,96.10
2022-10-01T01:15:59.840Z,96.10
2022-10-01T01:19:28.481Z,96.50
2022-10-01T01:22:40.382Z,96.30
2022-10-01T01:26:12.470Z,96.30
2022-10-01T01:29:24.169Z,96.20
2022-10-01T01:32:55.477Z,96.10
2022-10-01T01:36:04.712Z,96.00
2022-10-01T01:39:09.903Z,96.40
2022-10-01T01:42:21.508Z,96.40
2022-10-01T01:45:29.592Z,96.50
2022-10-01T01:48:33.423Z,96.40
2022-10-01T01:51:43.981Z,96.60
2022-10-01T01:54:48.419Z,96.40
2022-10-01T01:57:51.559Z,96.40
2022-10-01T02:00:54.041Z,96.30
2022-10-01T02:03:56.535Z,96.50
2022-10-01T02:06:59.070Z,96.40
2022-10-01T02:10:22.832Z,96.50
2022-10-01T02:13:50.259Z,96.40
2022-10-01T02:17:16.779Z,96.40
2022-10-01T02:20:27.258Z,96.50
2022-10-01T02:23:39.237Z,96.70
2022-10-01T02:26:44.728Z,96.50
2022-10-01T02:29:48.773Z,96.30
2022-10-01T02:32:52.713Z,96.40
2022-10-01T02:35:57.327Z,96.60
2022-10-01T02:38:59.598Z,96.60
2022-10-01T02:42:03.750Z,96.50
2022-10-01T02:45:07.656Z,96.40
2022-10-01T02:48:12.038Z,96.50
2022-10-01T02:51:19.930Z,96.30
2022-10-01T02:54:37.419Z,96.20
2022-10-01T02:57:39.937Z,96.30
2022-10-01T03:00:42.108Z,96.10
2022-10-01T03:03:44.154Z,96.20
2022-10-01T03:06:46.482Z,96.30
2022-10-01T03:09:49.724Z,96.20
2022-10-01T03:12:51.723Z,96.30
2022-10-01T03:15:54.076Z,96.30
2022-10-01T03:18:56.297Z,96.30
2022-10-01T03:21:58.341Z,96.20
2022-10-01T03:25:00.371Z,96.10
2022-10-01T03:28:02.504Z,96.10
2022-10-01T03:31:09.542Z,96.10
2022-10-01T03:34:11.993Z,96.10
2022-10-01T03:37:14.058Z,96.00
2022-10-01T03:40:16.151Z,96.10
2022-10-01T03:43:18.244Z,96.10
2022-10-01T03:46:21.746Z,96.10
2022-10-01T03:49:23.917Z,96.10
2022-10-01T03:52:25.955Z,96.10
2022-10-01T03:55:28.530Z,96.00
2022-10-01T03:58:30.772Z,96.20
2022-10-01T04:01:33.804Z,96.10
2022-10-01T04:04:36.413Z,96.00
2022-10-01T04:07:38.430Z,95.90
2022-10-01T04:10:41.242Z,95.90
2022-10-01T04:13:43.508Z,96.00
2022-10-01T04:16:46.866Z,96.00
2022-10-01T04:19:48.865Z,96.10
2022-10-01T04:22:51.143Z,96.00
2022-10-01T04:25:53.340Z,96.10
2022-10-01T04:28:55.474Z,96.10
2022-10-01T04:31:58.386Z,96.10
2022-10-01T04:35:01.230Z,96.10
2022-10-01T04:38:09.002Z,96.10
2022-10-01T04:41:11.018Z,96.10
2022-10-01T04:44:13.844Z,96.00
2022-10-01T04:47:16.002Z,96.00
2022-10-01T04:50:19.157Z,95.90
2022-10-01T04:53:24.143Z,95.90
2022-10-01T04:56:26.261Z,95.80
2022-10-01T04:59:28.446Z,95.90
2022-10-01T05:02:30.742Z,96.00
2022-10-01T05:05:35.174Z,96.10
2022-10-01T05:08:38.099Z,96.20
2022-10-01T05:11:42.324Z,96.00
2022-10-01T05:14:44.318Z,96.10
2022-10-01T05:17:47.435Z,96.00
2022-10-01T05:20:49.510Z,96.10
2022-10-01T05:23:52.562Z,96.00
2022-10-01T05:26:54.636Z,96.00
2022-10-01T05:29:57.048Z,96.00
2022-10-01T05:33:01.373Z,96.00
2022-10-01T05:36:06.886Z,96.00
2022-10-01T05:39:09.190Z,96.00
2022-10-01T05:42:11.250Z,96.00
2022-10-01T05:45:13.920Z,95.90
2022-10-01T05:48:17.009Z,96.00
2022-10-01T05:51:19.397Z,96.10
2022-10-01T05:54:23.390Z,96.10
2022-10-01T05:57:25.423Z,96.10
2022-10-01T06:00:29.357Z,96.00
2022-10-01T06:03:32.091Z,96.00
2022-10-01T06:06:34.169Z,96.00
2022-10-01T06:09:36.207Z,96.00
2022-10-01T06:12:38.298Z,95.90
2022-10-01T06:15:40.363Z,95.90
2022-10-01T06:18:42.787Z,96.00
2022-10-01T06:21:44.975Z,96.10
2022-10-01T06:24:47.191Z,96.10
2022-10-01T06:27:55.635Z,96.20
2022-10-01T06:30:57.887Z,96.10
2022-10-01T06:34:01.028Z,96.20
2022-10-01T06:37:03.159Z,96.20
2022-10-01T06:40:07.321Z,96.10
2022-10-01T06:43:10.147Z,96.10
2022-10-01T06:46:12.339Z,96.10
2022-10-01T06:49:14.444Z,96.20
2022-10-01T06:52:35.007Z,96.30
2022-10-01T06:55:38.773Z,96.20
2022-10-01T06:58:42.035Z,96.40
2022-10-01T07:01:45.029Z,96.10
2022-10-01T07:04:48.033Z,95.90
2022-10-01T07:07:50.193Z,95.10
2022-10-01T07:10:53.127Z,94.20
2022-10-01T07:13:57.688Z,92.20
2022-10-01T07:16:59.687Z,91.30
2022-10-01T07:20:01.996Z,90.50
2022-10-01T07:23:27.016Z,90.60
2022-10-01T07:26:29.430Z,90.30
2022-10-01T07:29:32.128Z,87.70
2022-10-01T07:32:35.534Z,87.80
2022-10-01T07:35:39.845Z,84.60
2022-10-01T07:38:43.944Z,80.70
2022-10-01T07:41:46.039Z,75.80
2022-10-01T07:44:48.261Z,75.20
2022-10-01T07:48:01.792Z,71.80
2022-10-01T07:51:04.023Z,70.00
2022-10-01T07:54:06.555Z,70.30
2022-10-01T07:57:08.617Z,68.10
2022-10-01T08:00:11.965Z,67.20
2022-10-01T08:03:14.126Z,63.90
2022-10-01T08:06:20.829Z,62.50
2022-10-01T08:09:25.434Z,59.80
2022-10-01T08:12:28.994Z,57.00
2022-10-01T08:15:31.274Z,59.20
2022-10-01T08:18:34.075Z,56.50
2022-10-01T08:21:36.793Z,53.90
2022-10-01T08:24:39.940Z,54.80
2022-10-01T08:28:00.274Z,51.50
2022-10-01T08:31:18.211Z,52.20
2022-10-01T08:34:20.283Z,50.30
2022-10-01T08:37:55.642Z,49.60
2022-10-01T08:41:00.841Z,49.20
2022-10-01T08:44:07.477Z,47.90
2022-10-01T08:47:23.627Z,49.80
2022-10-01T08:50:44.804Z,49.40
2022-10-01T08:54:09.144Z,47.80
2022-10-01T08:57:18.430Z,48.10
2022-10-01T09:00:21.611Z,48.20
2022-10-01T09:03:24.027Z,46.70
2022-10-01T09:06:28.098Z,44.70
2022-10-01T09:09:45.411Z,46.20
2022-10-01T09:13:10.006Z,44.50
2022-10-01T09:16:18.333Z,46.20
2022-10-01T09:19:59.078Z,46.40
2022-10-01T09:23:29.544Z,45.30
2022-10-01T09:26:32.285Z,44.40
2022-10-01T09:29:43.454Z,43.90
2022-10-01T09:33:22.910Z,42.70
2022-10-01T09:36:39.775Z,43.40
2022-10-01T09:40:03.087Z,43.90
2022-10-01T09:43:08.798Z,42.60
2022-10-01T09:46:17.405Z,43.20
2022-10-01T09:49:34.053Z,42.90
2022-10-01T09:52:39.346Z,41.40
2022-10-01T09:55:44.613Z,43.30
2022-10-01T09:58:54.266Z,42.90
2022-10-01T10:02:02.417Z,41.40
2022-10-01T10:05:07.366Z,41.60
2022-10-01T10:08:31.348Z,40.90
2022-10-01T10:11:34.298Z,38.80
2022-10-01T10:14:41.321Z,41.00
2022-10-01T10:17:46.474Z,40.20
2022-10-01T10:20:54.140Z,41.30
2022-10-01T10:24:00.556Z,40.80
2022-10-01T10:27:06.256Z,39.30
2022-10-01T10:30:16.737Z,41.30
2022-10-01T10:34:05.556Z,41.30
2022-10-01T10:37:15.384Z,41.50
2022-10-01T10:40:29.586Z,40.30
2022-10-01T10:43:38.411Z,39.60
2022-10-01T10:46:45.326Z,40.10
2022-10-01T10:50:00.561Z,37.50
2022-10-01T10:53:20.142Z,39.60
2022-10-01T10:56:24.691Z,38.80
2022-10-01T10:59:27.397Z,39.90
2022-10-01T11:02:33.331Z,38.80
2022-10-01T11:05:41.572Z,36.90
2022-10-01T11:08:44.584Z,37.30
2022-10-01T11:11:55.440Z,37.00
2022-10-01T11:15:22.491Z,36.40
2022-10-01T11:18:48.902Z,36.50
2022-10-01T11:22:04.200Z,37.00
2022-10-01T11:25:18.162Z,35.60
2022-10-01T11:28:35.661Z,37.20
2022-10-01T11:31:47.755Z,37.90
2022-10-01T11:35:19.368Z,39.20
2022-10-01T11:38:42.646Z,41.90
2022-10-01T11:41:55.452Z,44.40
2022-10-01T11:45:07.818Z,47.30
2022-10-01T11:48:19.538Z,49.90
2022-10-01T11:51:27.290Z,52.10
2022-10-01T11:54:31.423Z,53.40
2022-10-01T11:57:52.410Z,56.10
2022-10-01T12:01:11.138Z,57.00
2022-10-01T12:04:34.301Z,58.20
2022-10-01T12:07:54.269Z,59.20
2022-10-01T12:11:05.656Z,59.20
2022-10-01T12:14:17.486Z,60.10
2022-10-01T12:17:26.786Z,60.70
2022-10-01T12:20:37.809Z,61.60
2022-10-01T12:23:58.977Z,61.40
2022-10-01T12:27:05.098Z,61.40
2022-10-01T12:30:13.912Z,60.90
2022-10-01T12:33:37.866Z,61.60
2022-10-01T12:36:43.028Z,60.20
2022-10-01T12:40:01.203Z,61.10
2022-10-01T12:43:40.754Z,61.90
2022-10-01T12:47:09.443Z,58.60
2022-10-01T12:50:59.760Z,58.80
2022-10-01T12:54:41.912Z,55.30
2022-10-01T12:58:04.224Z,56.60
2022-10-01T13:01:11.288Z,55.10
2022-10-01T13:04:51.203Z,54.50
2022-10-01T13:08:03.109Z,54.80
2022-10-01T13:11:44.911Z,54.00
2022-10-01T13:14:49.093Z,55.10
2022-10-01T13:18:14.657Z,52.10
2022-10-01T13:21:42.237Z,49.10
2022-10-01T13:25:24.672Z,50.40
2022-10-01T13:28:49.260Z,50.40
2022-10-01T13:32:02.424Z,50.90
2022-10-01T13:35:35.271Z,51.50
2022-10-01T13:38:38.065Z,50.20
2022-10-01T13:41:40.176Z,50.30
2022-10-01T13:44:42.678Z,49.80
2022-10-01T13:47:44.756Z,49.90
2022-10-01T13:51:10.846Z,49.60
2022-10-01T13:54:27.898Z,48.40
2022-10-01T13:57:38.539Z,46.70
2022-10-01T14:00:49.835Z,46.60
2022-10-01T14:04:14.581Z,44.50
2022-10-01T14:07:25.360Z,44.60
2022-10-01T14:10:36.536Z,44.10
2022-10-01T14:14:05.608Z,44.60
2022-10-01T14:17:09.560Z,44.60
2022-10-01T14:20:34.361Z,45.20
2022-10-01T14:23:54.284Z,44.60
2022-10-01T14:27:10.516Z,45.50
2022-10-01T14:30:18.624Z,45.60
2022-10-01T14:33:41.605Z,46.50
2022-10-01T14:36:52.180Z,48.40
2022-10-01T14:40:22.194Z,49.10
2022-10-01T14:43:31.942Z,50.00
2022-10-01T14:46:36.361Z,49.80
2022-10-01T14:49:39.049Z,49.00
2022-10-01T14:52:47.542Z,49.80
2022-10-01T14:55:54.647Z,49.40
2022-10-01T14:59:03.403Z,49.50
2022-10-01T15:02:20.663Z,48.50
2022-10-01T15:05:22.829Z,48.70
2022-10-01T15:08:41.049Z,49.90
2022-10-01T15:11:44.827Z,48.50
2022-10-01T15:14:47.590Z,48.20
2022-10-01T15:17:50.236Z,47.90
2022-10-01T15:20:58.937Z,47.40
2022-10-01T15:24:04.411Z,48.40
2022-10-01T15:27:09.688Z,48.40
2022-10-01T15:30:16.033Z,48.10
2022-10-01T15:33:36.221Z,48.30
2022-10-01T15:36:39.849Z,48.00
2022-10-01T15:39:47.638Z,48.50
2022-10-01T15:43:21.423Z,47.80
2022-10-01T15:46:23.576Z,47.50
2022-10-01T15:49:26.212Z,47.90
2022-10-01T15:52:50.819Z,48.20
2022-10-01T15:55:57.083Z,48.20
2022-10-01T15:59:16.566Z,48.70
2022-10-01T16:02:31.144Z,48.40
2022-10-01T16:05:44.720Z,47.90
2022-10-01T16:09:10.710Z,47.00
2022-10-01T16:12:12.893Z,47.40
2022-10-01T16:15:31.474Z,48.20
2022-10-01T16:18:39.157Z,48.60
2022-10-01T16:21:41.257Z,47.90
2022-10-01T16:24:46.193Z,48.10
2022-10-01T16:27:50.852Z,48.20
2022-10-01T16:30:53.169Z,48.70
2022-10-01T16:33:55.417Z,48.00
2022-10-01T16:36:58.061Z,48.20
2022-10-01T16:40:00.069Z,47.80
2022-10-01T16:43:05.045Z,48.30
2022-10-01T16:46:07.104Z,48.90
2022-10-01T16:49:14.296Z,48.40
2022-10-01T16:52:19.105Z,48.90
2022-10-01T16:55:29.985Z,47.90
2022-10-01T16:58:32.423Z,47.80
2022-10-01T17:01:34.942Z,47.80
2022-10-01T17:04:36.960Z,51.10
2022-10-01T17:07:39.048Z,57.10
2022-10-01T17:10:48.330Z,59.90
2022-10-01T17:13:51.471Z,60.40
2022-10-01T17:16:53.708Z,62.20
2022-10-01T17:19:55.991Z,61.40
2022-10-01T17:22:58.724Z,62.10
2022-10-01T17:26:01.197Z,62.50
2022-10-01T17:29:03.287Z,62.60
2022-10-01T17:32:05.436Z,62.90
2022-10-01T17:35:07.918Z,63.40
2022-10-01T17:38:11.204Z,64.80
2022-10-01T17:41:13.208Z,65.30
2022-10-01T17:44:15.351Z,66.10
2022-10-01T17:47:18.473Z,66.20
2022-10-01T17:50:20.576Z,66.20
2022-10-01T17:53:22.565Z,65.90
2022-10-01T17:56:24.808Z,65.70
2022-10-01T17:59:27.086Z,65.70
2022-10-01T18:02:41.651Z,65.00
2022-10-01T18:05:45.420Z,64.90
2022-10-01T18:08:56.239Z,65.00
2022-10-01T18:11:58.644Z,64.60
2022-10-01T18:15:01.482Z,64.70
2022-10-01T18:21:25.700Z,64.90
2022-10-01T18:24:28.822Z,65.00
2022-10-01T18:27:31.167Z,65.30
2022-10-01T18:30:33.538Z,65.60
2022-10-01T18:33:35.952Z,65.50
2022-10-01T18:37:03.104Z,65.50
2022-10-01T18:40:11.164Z,65.70
2022-10-01T18:43:17.670Z,65.90
2022-10-01T18:46:40.170Z,66.00
2022-10-01T18:50:27.932Z,66.80
2022-10-01T18:53:29.982Z,66.30
2022-10-01T18:56:37.702Z,66.10
2022-10-01T19:00:08.909Z,66.30
2022-10-01T19:03:45.827Z,67.20
2022-10-01T19:06:56.619Z,67.60
2022-10-01T19:10:26.539Z,67.70
2022-10-01T19:13:45.792Z,67.50
2022-10-01T19:16:51.333Z,67.30
2022-10-01T19:20:02.361Z,67.60
2022-10-01T19:23:11.897Z,68.00
2022-10-01T19:26:36.542Z,67.70
2022-10-01T19:30:03.396Z,68.50
2022-10-01T19:33:10.848Z,68.40
2022-10-01T19:36:26.250Z,67.50
2022-10-01T19:39:33.208Z,67.40
2022-10-01T19:42:40.481Z,68.00
2022-10-01T19:46:07.044Z,67.80
2022-10-01T19:49:23.016Z,68.00
2022-10-01T19:52:26.024Z,67.40
2022-10-01T19:55:38.770Z,67.50
2022-10-01T19:58:41.452Z,67.90
2022-10-01T20:01:53.966Z,67.90
2022-10-01T20:05:01.827Z,67.50
2022-10-01T20:08:13.982Z,67.60
2022-10-01T20:11:30.972Z,67.40
2022-10-01T20:15:15.999Z,67.50
2022-10-01T20:18:39.543Z,67.70
2022-10-01T20:22:04.938Z,67.50
2022-10-01T20:25:39.971Z,67.60
2022-10-01T20:29:00.792Z,67.40
2022-10-01T20:32:06.940Z,67.20
2022-10-01T20:35:17.656Z,67.00
2022-10-01T20:38:32.157Z,67.00
2022-10-01T20:41:42.462Z,67.00
2022-10-01T20:44:46.116Z,67.20
2022-10-01T20:47:55.346Z,67.50
2022-10-01T20:51:06.844Z,67.80
2022-10-01T20:54:23.280Z,67.60
2022-10-01T20:57:51.595Z,67.60
2022-10-01T21:01:15.852Z,68.10
2022-10-01T21:04:23.714Z,67.90
2022-10-01T21:07:37.854Z,67.80
2022-10-01T21:10:59.682Z,67.90
2022-10-01T21:14:33.519Z,68.10
2022-10-01T21:18:03.215Z,68.00
2022-10-01T21:21:23.424Z,67.90
2022-10-01T21:24:47.218Z,68.00
2022-10-01T21:28:26.568Z,67.80
2022-10-01T21:32:05.131Z,68.30
2022-10-01T21:35:25.424Z,68.50
2022-10-01T21:38:49.091Z,69.40
2022-10-01T21:42:15.536Z,68.60
2022-10-01T21:45:50.177Z,68.80
2022-10-01T21:49:03.526Z,68.90
2022-10-01T21:52:26.717Z,69.80
2022-10-01T21:55:58.954Z,69.30
2022-10-01T21:59:31.377Z,69.20
2022-10-01T22:02:50.159Z,69.10
2022-10-01T22:06:24.111Z,69.20
2022-10-01T22:09:43.109Z,69.10
2022-10-01T22:12:50.300Z,69.20
2022-10-01T22:15:56.808Z,69.30
2022-10-01T22:19:07.188Z,69.00
2022-10-01T22:22:25.691Z,69.10
2022-10-01T22:25:30.494Z,69.40
2022-10-01T22:28:39.533Z,69.30
2022-10-01T22:31:43.227Z,69.30
2022-10-01T22:34:55.661Z,69.30
2022-10-01T22:38:07.556Z,69.50
2022-10-01T22:41:56.927Z,69.40
2022-10-01T22:45:09.234Z,69.50
2022-10-01T22:48:23.274Z,69.40
2022-10-01T22:51:46.673Z,69.30
2022-10-01T22:55:06.715Z,69.30
2022-10-01T22:58:29.542Z,69.30
2022-10-01T23:01:37.531Z,69.30
2022-10-01T23:04:45.778Z,69.20
2022-10-01T23:08:18.367Z,69.30
2022-10-01T23:11:47.295Z,69.40
2022-10-01T23:15:11.932Z,69.00
2022-10-01T23:18:15.379Z,69.10
2022-10-01T23:21:30.300Z,68.80
2022-10-01T23:24:50.983Z,69.00
2022-10-01T23:28:14.010Z,68.90
2022-10-01T23:31:23.691Z,68.90
2022-10-01T23:34:26.012Z,69.00
2022-10-01T23:37:52.865Z,69.20
2022-10-01T23:40:59.670Z,69.10
2022-10-01T23:44:32.257Z,69.10
2022-10-01T23:47:42.803Z,69.30
2022-10-01T23:51:10.081Z,69.40
2022-10-01T23:54:17.902Z,69.40
2022-10-01T23:57:30.123Z,69.60
